createdAt,value
2023-04-10T00:02:11.120Z,1016.23
2023-04-10T00:08:31.032Z,1016.21
2023-04-10T00:14:54.036Z,1016.15
2023-04-10T00:21:14.017Z,1016.05
2023-04-10T00:27:37.002Z,1016.07
2023-04-10T00:33:57.046Z,1016.03
2023-04-10T00:40:20.011Z,1015.96
2023-04-10T00:46:39.990Z,1015.94
2023-04-10T00:53:03.073Z,1015.88
2023-04-10T00:59:22.984Z,1015.84
2023-04-10T01:05:46.036Z,1015.78
2023-04-10T01:12:06.000Z,1015.69
2023-04-10T01:18:29.001Z,1015.69
2023-04-10T01:24:49.025Z,1015.67
2023-04-10T01:31:12.084Z,1015.6
2023-04-10T01:37:31.996Z,1015.58
2023-04-10T01:43:55.123Z,1015.52
2023-04-10T01:50:15.027Z,1015.36
2023-04-10T01:56:37.998Z,1015.24
2023-04-10T02:02:58.096Z,1015.2
2023-04-10T02:09:21.095Z,1015.15
2023-04-10T02:15:41.022Z,1015.09
2023-04-10T02:22:04.010Z,1015.03
2023-04-10T02:28:24.035Z,1014.97
2023-04-10T02:34:47.072Z,1014.89
2023-04-10T02:41:07.043Z,1014.87
2023-04-10T02:47:30.107Z,1014.85
2023-04-10T02:53:50.026Z,1014.85
2023-04-10T03:00:13.034Z,1014.83
2023-04-10T03:06:33.059Z,1014.83
2023-04-10T03:12:57.002Z,1014.83
2023-04-10T03:30:15.026Z,1014.75
2023-04-10T03:36:37.984Z,1014.75
2023-04-10T03:42:58.007Z,1014.71
2023-04-10T03:49:21.026Z,1014.62
2023-04-10T03:55:41.046Z,1014.58
2023-04-10T04:02:04.108Z,1014.46
2023-04-10T04:08:24.021Z,1014.38
2023-04-10T04:14:47.017Z,1014.38
2023-04-10T04:21:07.009Z,1014.34
2023-04-10T04:27:30.033Z,1014.34
2023-04-10T04:33:49.964Z,1014.36
2023-04-10T04:40:13.036Z,1014.34
2023-04-10T04:46:33.010Z,1014.4
2023-04-10T04:52:56.006Z,1014.42
2023-04-10T04:59:16.036Z,1014.38
2023-04-10T05:05:39.019Z,1014.4
2023-04-10T05:11:59.021Z,1014.38
2023-04-10T05:18:22.002Z,1014.34
2023-04-10T05:24:42.008Z,1014.32
2023-04-10T05:31:05.034Z,1014.32
2023-04-10T05:37:24.970Z,1014.36
2023-04-10T05:43:48.038Z,1014.38
2023-04-10T05:50:08.004Z,1014.42
2023-04-10T05:56:30.982Z,1014.44
2023-04-10T06:02:51.072Z,1014.46
2023-04-10T06:09:14.036Z,1014.48
2023-04-10T06:15:33.991Z,1014.46
2023-04-10T06:21:57.035Z,1014.44
2023-04-10T06:28:17.127Z,1014.4
2023-04-10T06:34:39.974Z,1014.4
2023-04-10T06:41:00.059Z,1014.28
2023-04-10T06:47:22.994Z,1014.24
2023-04-10T06:53:43.039Z,1014.24
2023-04-10T07:00:06.064Z,1014.28
2023-04-10T07:06:25.997Z,1014.28
2023-04-10T07:12:49.040Z,1014.34
2023-04-10T07:19:09.029Z,1014.34
2023-04-10T07:25:32.002Z,1014.26
2023-04-10T07:31:52.061Z,1014.24
2023-04-10T07:38:15.002Z,1014.17
2023-04-10T07:44:34.991Z,1014.11
2023-04-10T07:50:57.998Z,1014.07
2023-04-10T07:57:18.007Z,1013.93
2023-04-10T08:03:41.075Z,1013.91
2023-04-10T08:10:00.984Z,1013.81
2023-04-10T08:16:24.193Z,1013.77
2023-04-10T08:22:44.004Z,1013.68
2023-04-10T08:29:06.999Z,1013.64
2023-04-10T08:52:13.513Z,1013.42
2023-04-10T08:58:32.982Z,1013.4
2023-04-10T09:04:56.041Z,1013.3
2023-04-10T09:11:16.021Z,1013.21
2023-04-10T09:17:39.017Z,1013
2023-04-10T09:23:58.985Z,1012.83
2023-04-10T09:30:21.996Z,1012.71
2023-04-10T09:36:42.050Z,1012.57
2023-04-10T09:43:04.983Z,1012.47
2023-04-10T09:49:25.016Z,1012.43
2023-04-10T09:55:47.988Z,1012.43
2023-04-10T10:02:08.090Z,1012.42
2023-04-10T10:08:31.021Z,1012.38
2023-04-10T10:14:51.031Z,1012.26
2023-04-10T10:21:14.001Z,1012.2
2023-04-10T10:27:34.040Z,1012.08
2023-04-10T10:33:56.986Z,1011.98
2023-04-10T10:40:16.991Z,1011.89
2023-04-10T10:46:40.055Z,1011.81
2023-04-10T10:53:00.001Z,1011.61
2023-04-10T10:59:22.986Z,1011.51
2023-04-10T11:05:43.008Z,1011.32
2023-04-10T11:12:05.997Z,1011.1
2023-04-10T11:18:26.027Z,1010.93
2023-04-10T11:24:49.009Z,1010.81
2023-04-10T11:31:08.996Z,1010.69
2023-04-10T11:37:31.991Z,1010.49
2023-04-10T11:43:52.030Z,1010.33
2023-04-10T11:50:15.020Z,1010.22
2023-04-10T11:56:34.984Z,1010.14
2023-04-10T12:02:58.200Z,1010.02
2023-04-10T12:09:17.978Z,1009.94
2023-04-10T12:15:40.990Z,1009.88
2023-04-10T12:22:01.014Z,1009.86
2023-04-10T12:28:23.981Z,1009.78
2023-04-10T12:34:44.015Z,1009.67
2023-04-10T12:41:07.015Z,1009.59
2023-04-10T12:47:27.018Z,1009.47
2023-04-10T12:53:50.009Z,1009.45
2023-04-10T13:00:10.027Z,1009.37
2023-04-10T13:06:32.997Z,1009.26
2023-04-10T13:12:52.998Z,1009.22
2023-04-10T13:19:16.010Z,1009.18
2023-04-10T13:25:36.012Z,1009.08
2023-04-10T13:31:59.001Z,1008.98
2023-04-10T13:38:19.974Z,1008.86
2023-04-10T13:44:42.011Z,1008.73
2023-04-10T13:51:02.004Z,1008.51
2023-04-10T13:57:25.030Z,1008.28
2023-04-10T14:03:45.090Z,1008.06
2023-04-10T14:10:08.102Z,1007.74
2023-04-10T14:16:28.068Z,1007.6
2023-04-10T14:38:40.024Z,1007.25
2023-04-10T14:45:02.996Z,1007.13
2023-04-10T14:51:23.011Z,1007.02
2023-04-10T14:57:46.011Z,1006.94
2023-04-10T15:04:06.035Z,1006.8
2023-04-10T15:10:29.005Z,1006.7
2023-04-10T15:16:49.066Z,1006.68
2023-04-10T15:23:11.999Z,1006.74
2023-04-10T15:29:31.984Z,1006.76
2023-04-10T15:35:55.052Z,1006.82
2023-04-10T15:42:15.010Z,1006.82
2023-04-10T15:48:37.986Z,1006.8
2023-04-10T15:54:58.031Z,1006.74
2023-04-10T16:01:21.000Z,1006.66
2023-04-10T16:07:40.986Z,1006.65
2023-04-10T16:14:04.011Z,1006.57
2023-04-10T16:20:23.982Z,1006.45
2023-04-10T16:26:47.019Z,1006.31
2023-04-10T16:33:07.132Z,1006.25
2023-04-10T16:39:29.997Z,1006.21
2023-04-10T16:45:49.978Z,1006.19
2023-04-10T16:52:13.023Z,1006.08
2023-04-10T16:58:33.002Z,1006
2023-04-10T17:04:55.983Z,1005.86
2023-04-10T17:11:16.038Z,1005.72
2023-04-10T17:17:38.999Z,1005.63
2023-04-10T17:23:58.983Z,1005.36
2023-04-10T17:30:22.066Z,1005.27
2023-04-10T17:36:41.987Z,1005.21
2023-04-10T17:43:04.983Z,1005.11
2023-04-10T17:49:25.098Z,1004.95
2023-04-10T17:55:47.987Z,1004.9
2023-04-10T18:02:08.020Z,1004.78
2023-04-10T18:08:31.007Z,1004.66
2023-04-10T18:14:50.984Z,1004.68
2023-04-10T18:21:14.026Z,1004.72
2023-04-10T18:27:34.000Z,1004.78
2023-04-10T18:34:06.905Z,1004.9
2023-04-10T18:40:17.208Z,1004.9
2023-04-10T18:46:40.390Z,1004.8
2023-04-10T18:53:00.018Z,1004.66
2023-04-10T18:59:23.006Z,1004.64
2023-04-10T19:05:43.043Z,1004.56
2023-04-10T19:12:06.005Z,1004.56
2023-04-10T19:18:25.993Z,1004.5
2023-04-10T19:24:49.019Z,1004.43
2023-04-10T19:31:09.042Z,1004.43
2023-04-10T19:37:32.057Z,1004.39
2023-04-10T19:43:52.077Z,1004.45
2023-04-10T19:50:14.994Z,1004.5
2023-04-10T19:56:34.991Z,1004.58
2023-04-10T20:19:05.105Z,1004.95
2023-04-10T20:25:28.002Z,1005.01
2023-04-10T20:31:48.032Z,1005.07
2023-04-10T20:38:11.023Z,1005.01
2023-04-10T20:44:30.989Z,1005.05
2023-04-10T20:50:54.000Z,1005.11
2023-04-10T20:57:13.999Z,1005.31
2023-04-10T21:03:37.064Z,1005.49
2023-04-10T21:09:57.004Z,1005.51
2023-04-10T21:16:20.041Z,1005.59
2023-04-10T21:22:40.032Z,1005.57
2023-04-10T21:29:03.000Z,1005.57
2023-04-10T21:35:23.017Z,1005.53
2023-04-10T21:41:46.012Z,1005.53
2023-04-10T21:48:06.009Z,1005.4
2023-04-10T21:54:29.040Z,1005.53
2023-04-10T22:20:01.005Z,1004.58
2023-04-10T22:26:20.983Z,1004.37
2023-04-10T22:32:44.022Z,1004.52
2023-04-10T22:39:04.019Z,1004.64
2023-04-10T22:45:26.972Z,1004.74
2023-04-10T22:51:47.000Z,1004.62
2023-04-10T22:58:10.012Z,1004.35
2023-04-10T23:04:30.041Z,1004.23
2023-04-10T23:10:52.992Z,1004.27
2023-04-10T23:17:13.024Z,1004.27
2023-04-10T23:23:36.001Z,1004.23
2023-04-10T23:29:56.006Z,1004.05
2023-04-10T23:36:19.029Z,1004.15
2023-04-10T23:42:39.021Z,1004.21
2023-04-10T23:49:02.040Z,1004.29
2023-04-10T23:55:22.014Z,1004.37
